Terminal Aerodrome Forecast
Issued by NWS Missoula, MT

Home | Current Version | Previous Version | Text Only | Print | Product List | Glossary On
Versions: 1 2 3 4 5 6 7 8 9 10 11 12 13 14 15 16 17 18 19 20
000
FTUS45 KMSO 181132
TAFGPI
TAF
KGPI 181132Z 1812/1912 17010KT P6SM -FZRA FEW024 OVC030
     FM181400 18010KT P6SM -RA SCT025 OVC030
     FM181800 21012G18KT 5SM -RA OVC030
     FM182300 22008KT P6SM VCSH BKN040
     FM191000 23005KT 2SM -SN BR OVC025=

USA.gov is the U.S. government's official web portal to all federal, state and local government web resources and services.